createdAt,value
2018-07-02T00:00:31.336Z,49.25
2018-07-02T00:03:00.464Z,49.51
2018-07-02T00:05:46.520Z,49.52
2018-07-02T00:08:15.662Z,49.98
2018-07-02T00:10:44.823Z,50.01
2018-07-02T00:13:13.963Z,50.12
2018-07-02T00:15:43.095Z,50.39
2018-07-02T00:18:12.269Z,50.50
2018-07-02T00:20:41.411Z,50.74
2018-07-02T00:23:10.547Z,50.66
2018-07-02T00:25:39.696Z,50.42
2018-07-02T00:28:08.844Z,51.10
2018-07-02T00:30:37.985Z,51.07
2018-07-02T00:33:07.134Z,51.57
2018-07-02T00:35:36.269Z,51.48
2018-07-02T00:38:05.439Z,51.49
2018-07-02T00:40:34.579Z,51.69
2018-07-02T00:43:03.749Z,51.83
2018-07-02T00:45:32.879Z,52.10
2018-07-02T00:48:02.020Z,52.19
2018-07-02T00:50:31.176Z,52.16
2018-07-02T00:53:00.318Z,52.32
2018-07-02T00:55:29.462Z,52.28
2018-07-02T00:57:58.599Z,52.50
2018-07-02T01:00:27.757Z,52.78
2018-07-02T01:02:56.886Z,52.47
2018-07-02T01:05:26.030Z,53.01
2018-07-02T01:07:55.178Z,52.55
2018-07-02T01:10:24.340Z,52.62
2018-07-02T01:12:53.479Z,52.73
2018-07-02T01:15:22.614Z,53.49
2018-07-02T01:17:51.764Z,53.54
2018-07-02T01:20:20.908Z,53.61
2018-07-02T01:22:50.052Z,53.57
2018-07-02T01:25:19.202Z,53.50
2018-07-02T01:27:48.343Z,53.53
2018-07-02T01:30:17.485Z,53.43
2018-07-02T01:32:46.614Z,53.79
2018-07-02T01:35:15.772Z,53.93
2018-07-02T01:37:44.921Z,54.29
2018-07-02T01:40:14.061Z,54.29
2018-07-02T01:42:43.208Z,54.32
2018-07-02T01:45:12.362Z,54.44
2018-07-02T01:47:41.500Z,54.32
2018-07-02T01:50:10.665Z,54.73
2018-07-02T01:52:39.806Z,54.71
2018-07-02T01:55:08.952Z,54.60
2018-07-02T01:57:38.091Z,54.97
2018-07-02T02:00:07.252Z,54.68
2018-07-02T02:02:36.404Z,54.87
2018-07-02T02:05:05.595Z,54.77
2018-07-02T02:07:34.732Z,55.37
2018-07-02T02:10:03.888Z,55.09
2018-07-02T02:12:33.003Z,54.91
2018-07-02T02:15:02.117Z,55.72
2018-07-02T02:17:31.248Z,55.69
2018-07-02T02:20:00.369Z,56.42
2018-07-02T02:22:29.500Z,57.07
2018-07-02T02:24:58.623Z,57.53
2018-07-02T02:27:27.739Z,57.53
2018-07-02T02:29:56.956Z,57.77
2018-07-02T02:32:26.079Z,58.51
2018-07-02T02:34:55.201Z,58.15
2018-07-02T02:37:24.342Z,58.77
2018-07-02T02:39:53.481Z,58.41
2018-07-02T02:42:22.605Z,58.47
2018-07-02T02:44:51.740Z,57.83
2018-07-02T02:47:20.856Z,57.77
2018-07-02T02:49:49.982Z,57.98
2018-07-02T02:52:19.120Z,57.77
2018-07-02T02:54:48.228Z,58.09
2018-07-02T02:57:17.375Z,57.60
2018-07-02T02:59:46.491Z,57.37
2018-07-02T03:02:15.620Z,57.36
2018-07-02T03:04:44.739Z,57.74
2018-07-02T03:07:13.879Z,58.00
2018-07-02T03:09:42.997Z,58.30
2018-07-02T03:12:12.132Z,58.27
2018-07-02T03:14:41.264Z,58.30
2018-07-02T03:17:10.400Z,58.46
2018-07-02T03:19:39.524Z,58.38
2018-07-02T03:22:08.859Z,58.11
2018-07-02T03:24:37.926Z,58.65
2018-07-02T03:27:07.039Z,58.67
2018-07-02T03:29:36.179Z,58.83
2018-07-02T03:32:05.308Z,58.79
2018-07-02T03:34:34.418Z,58.53
2018-07-02T03:37:03.543Z,58.79
2018-07-02T03:39:32.662Z,58.71
2018-07-02T03:42:01.762Z,58.70
2018-07-02T03:44:30.883Z,58.95
2018-07-02T03:47:00.001Z,58.53
2018-07-02T03:49:29.128Z,58.66
2018-07-02T03:51:58.265Z,59.04
2018-07-02T03:54:27.376Z,58.90
2018-07-02T03:56:56.497Z,59.12
2018-07-02T03:59:25.639Z,59.29
2018-07-02T04:01:54.784Z,59.67
2018-07-02T04:04:23.898Z,58.95
2018-07-02T04:06:53.010Z,59.41
2018-07-02T04:09:22.167Z,59.63
2018-07-02T04:11:51.310Z,58.59
2018-07-02T04:14:20.455Z,59.83
2018-07-02T04:16:49.595Z,59.51
2018-07-02T04:19:18.735Z,59.30
2018-07-02T04:21:47.888Z,59.46
2018-07-02T04:24:17.031Z,58.40
2018-07-02T04:26:46.173Z,58.55
2018-07-02T04:29:15.326Z,57.56
2018-07-02T04:31:44.647Z,57.89
2018-07-02T04:34:13.816Z,58.27
2018-07-02T04:36:42.946Z,57.73
2018-07-02T04:39:12.100Z,57.35
2018-07-02T04:41:41.259Z,57.46
2018-07-02T04:44:10.400Z,57.20
2018-07-02T04:46:39.584Z,56.85
2018-07-02T04:49:08.723Z,56.47
2018-07-02T04:51:37.867Z,56.99
2018-07-02T04:54:07.024Z,56.42
2018-07-02T04:56:36.167Z,56.35
2018-07-02T04:59:05.371Z,56.16
2018-07-02T05:01:34.504Z,54.94
2018-07-02T05:04:03.619Z,54.87
2018-07-02T05:06:32.748Z,55.35
2018-07-02T05:09:01.842Z,55.05
2018-07-02T05:11:31.048Z,53.70
2018-07-02T05:14:00.165Z,52.37
2018-07-02T05:16:29.276Z,53.18
2018-07-02T05:18:58.391Z,53.06
2018-07-02T05:21:27.505Z,53.45
2018-07-02T05:23:56.618Z,53.08
2018-07-02T05:26:25.744Z,53.98
2018-07-02T05:28:55.017Z,53.44
2018-07-02T05:31:24.232Z,53.84
2018-07-02T05:33:53.280Z,52.18
2018-07-02T05:36:22.387Z,51.50
2018-07-02T05:38:51.520Z,51.87
2018-07-02T05:41:20.664Z,51.50
2018-07-02T05:43:49.783Z,51.13
2018-07-02T05:46:18.887Z,50.30
2018-07-02T05:48:48.312Z,50.66
2018-07-02T05:51:17.449Z,51.29
2018-07-02T05:53:46.562Z,51.47
2018-07-02T05:56:15.670Z,51.67
2018-07-02T05:58:44.797Z,51.34
2018-07-02T06:01:13.891Z,50.97
2018-07-02T06:03:43.002Z,51.28
2018-07-02T06:06:12.116Z,51.16
2018-07-02T06:08:41.236Z,50.42
2018-07-02T06:11:10.343Z,50.76
2018-07-02T06:13:39.480Z,50.41
2018-07-02T06:16:08.589Z,50.99
2018-07-02T06:18:37.712Z,49.28
2018-07-02T06:21:09.808Z,50.31
2018-07-02T06:23:38.939Z,49.64
2018-07-02T06:26:08.057Z,49.59
2018-07-02T06:28:37.178Z,49.85
2018-07-02T06:31:06.305Z,50.10
2018-07-02T06:33:35.430Z,49.71
2018-07-02T06:36:04.553Z,48.37
2018-07-02T06:38:33.672Z,48.50
2018-07-02T06:41:02.792Z,48.11
2018-07-02T06:43:31.917Z,48.73
2018-07-02T06:46:01.040Z,47.61
2018-07-02T06:48:30.201Z,47.80
2018-07-02T06:50:59.333Z,47.39
2018-07-02T06:53:28.478Z,47.76
2018-07-02T06:55:57.602Z,48.55
2018-07-02T06:58:26.753Z,47.70
2018-07-02T07:00:55.911Z,46.37
2018-07-02T07:03:25.016Z,45.57
2018-07-02T07:05:54.185Z,44.80
2018-07-02T07:08:23.322Z,44.69
2018-07-02T07:10:52.450Z,45.08
2018-07-02T07:13:21.566Z,44.10
2018-07-02T07:15:50.702Z,43.01
2018-07-02T07:18:19.829Z,43.60
2018-07-02T07:20:48.955Z,42.04
2018-07-02T07:23:18.076Z,42.34
2018-07-02T07:25:47.223Z,43.46
2018-07-02T07:28:16.315Z,42.92
2018-07-02T07:30:45.581Z,41.09
2018-07-02T07:33:14.663Z,40.58
2018-07-02T07:35:43.796Z,41.05
2018-07-02T07:38:12.910Z,40.43
2018-07-02T07:40:42.040Z,40.75
2018-07-02T07:43:11.160Z,41.31
2018-07-02T07:45:40.280Z,41.14
2018-07-02T07:48:09.445Z,40.14
2018-07-02T07:50:38.566Z,38.71
2018-07-02T07:53:07.752Z,37.50
2018-07-02T07:55:36.828Z,38.42
2018-07-02T07:58:06.024Z,38.58
2018-07-02T08:00:35.142Z,38.14
2018-07-02T08:03:04.277Z,39.59
2018-07-02T08:05:33.404Z,39.46
2018-07-02T08:08:02.559Z,39.05
2018-07-02T08:10:31.720Z,38.11
2018-07-02T08:13:00.852Z,38.07
2018-07-02T08:15:29.999Z,38.10
2018-07-02T08:17:59.157Z,38.46
2018-07-02T08:20:28.320Z,37.61
2018-07-02T08:22:57.468Z,36.35
2018-07-02T08:25:26.638Z,35.73
2018-07-02T08:27:55.884Z,36.20
2018-07-02T08:30:25.037Z,36.52
2018-07-02T08:32:54.226Z,36.31
2018-07-02T08:35:23.347Z,36.85
2018-07-02T08:37:52.503Z,34.51
2018-07-02T08:40:21.719Z,35.33
2018-07-02T08:42:50.858Z,35.62
2018-07-02T08:45:19.995Z,35.51
2018-07-02T08:47:49.141Z,35.22
2018-07-02T08:50:18.307Z,34.67
2018-07-02T08:52:47.487Z,34.59
2018-07-02T08:55:16.624Z,34.31
2018-07-02T08:57:45.788Z,34.74
2018-07-02T09:00:14.926Z,33.36
2018-07-02T09:02:44.076Z,34.21
2018-07-02T09:05:13.211Z,34.69
2018-07-02T09:07:42.351Z,34.33
2018-07-02T09:10:11.475Z,34.66
2018-07-02T09:12:40.603Z,33.83
2018-07-02T09:15:09.715Z,33.66
2018-07-02T09:17:38.903Z,33.68
2018-07-02T09:20:07.973Z,34.11
2018-07-02T09:22:37.299Z,34.76
2018-07-02T09:25:06.411Z,33.83
2018-07-02T09:27:35.540Z,33.61
2018-07-02T09:30:05.058Z,32.91
2018-07-02T09:32:34.199Z,33.27
2018-07-02T09:35:03.301Z,32.96
2018-07-02T09:37:32.435Z,32.32
2018-07-02T09:40:01.569Z,32.98
2018-07-02T09:42:30.701Z,31.93
2018-07-02T09:44:59.850Z,31.91
2018-07-02T09:47:29.050Z,31.52
2018-07-02T09:49:58.163Z,31.80
2018-07-02T09:52:27.276Z,32.62
2018-07-02T09:54:56.405Z,31.38
2018-07-02T09:57:25.529Z,31.84
2018-07-02T09:59:54.679Z,32.07
2018-07-02T10:02:23.824Z,31.76
2018-07-02T10:04:53.362Z,31.90
2018-07-02T10:07:22.519Z,30.26
2018-07-02T10:09:51.667Z,31.47
2018-07-02T10:12:20.807Z,30.84
2018-07-02T10:14:50.769Z,31.81
2018-07-02T10:17:19.884Z,31.25
2018-07-02T10:19:49.026Z,31.62
2018-07-02T10:22:18.133Z,30.08
2018-07-02T10:24:47.252Z,30.84
2018-07-02T10:27:16.402Z,30.61
2018-07-02T10:29:45.541Z,31.33
2018-07-02T10:32:14.672Z,30.40
2018-07-02T10:34:43.829Z,31.11
2018-07-02T10:37:12.917Z,30.61
2018-07-02T10:39:42.058Z,30.10
2018-07-02T10:42:11.176Z,29.90
2018-07-02T10:44:40.291Z,29.73
2018-07-02T10:47:09.406Z,29.52
2018-07-02T10:49:38.566Z,29.38
2018-07-02T10:52:07.680Z,28.84
2018-07-02T10:54:36.815Z,29.71
2018-07-02T10:57:05.934Z,28.42
2018-07-02T10:59:35.089Z,30.40
2018-07-02T11:02:04.225Z,29.79
2018-07-02T11:04:33.374Z,29.88
2018-07-02T11:07:02.516Z,29.79
2018-07-02T11:09:31.634Z,29.01
2018-07-02T11:12:00.761Z,28.17
2018-07-02T11:14:29.879Z,28.65
2018-07-02T11:16:59.009Z,28.13
2018-07-02T11:19:28.495Z,28.31
2018-07-02T11:21:57.634Z,27.82
2018-07-02T11:24:26.747Z,27.69
2018-07-02T11:26:55.865Z,26.71
2018-07-02T11:29:24.970Z,25.57
2018-07-02T11:31:54.089Z,24.11
2018-07-02T11:34:23.194Z,25.59
2018-07-02T11:36:52.311Z,25.57
2018-07-02T11:39:21.418Z,26.04
2018-07-02T11:41:50.538Z,25.67
2018-07-02T11:44:19.664Z,25.80
2018-07-02T11:46:48.798Z,25.07
2018-07-02T11:49:17.910Z,24.86
2018-07-02T11:51:47.024Z,24.68
2018-07-02T11:54:16.137Z,23.84
2018-07-02T11:56:45.281Z,25.64
2018-07-02T11:59:14.464Z,26.11
2018-07-02T12:01:43.588Z,24.02
2018-07-02T12:04:12.762Z,23.60
2018-07-02T12:06:41.850Z,22.61
2018-07-02T12:09:11.845Z,24.59
2018-07-02T12:11:41.273Z,24.10
2018-07-02T12:14:10.392Z,22.95
2018-07-02T12:16:39.513Z,23.32
2018-07-02T12:19:08.641Z,22.79
2018-07-02T12:21:37.752Z,22.03
2018-07-02T12:24:06.872Z,21.71
2018-07-02T12:26:35.975Z,22.78
2018-07-02T12:29:05.100Z,20.84
2018-07-02T12:31:34.208Z,20.95
2018-07-02T12:34:03.333Z,22.43
2018-07-02T12:36:32.430Z,22.05
2018-07-02T12:39:01.555Z,20.53
2018-07-02T12:41:30.677Z,21.33
2018-07-02T12:43:59.792Z,21.35
2018-07-02T12:46:28.905Z,19.69
2018-07-02T12:48:58.028Z,19.90
2018-07-02T12:51:27.167Z,20.36
2018-07-02T12:53:56.284Z,19.51
2018-07-02T12:56:25.423Z,20.89
2018-07-02T12:58:54.572Z,20.65
2018-07-02T13:01:23.700Z,19.69
2018-07-02T13:03:52.822Z,19.62
2018-07-02T13:06:21.933Z,19.01
2018-07-02T13:08:51.100Z,19.34
2018-07-02T13:11:20.231Z,18.89
2018-07-02T13:13:49.380Z,18.57
2018-07-02T13:16:18.526Z,17.39
2018-07-02T13:18:47.643Z,18.57
2018-07-02T13:21:16.788Z,18.25
2018-07-02T13:23:45.935Z,18.79
2018-07-02T13:26:15.081Z,18.84
2018-07-02T13:28:44.224Z,18.00
2018-07-02T13:31:13.368Z,18.21
2018-07-02T13:33:42.511Z,17.40
2018-07-02T13:36:11.695Z,18.00
2018-07-02T13:38:40.795Z,17.76
2018-07-02T13:41:09.939Z,18.17
2018-07-02T13:43:39.071Z,17.63
2018-07-02T13:46:08.245Z,17.31
2018-07-02T13:48:37.370Z,18.23
2018-07-02T13:51:06.557Z,16.83
2018-07-02T13:53:35.674Z,17.50
2018-07-02T13:56:04.828Z,18.04
2018-07-02T13:58:33.961Z,18.37
2018-07-02T14:01:03.105Z,17.02
2018-07-02T14:03:32.238Z,17.60
2018-07-02T14:06:01.404Z,16.87
2018-07-02T14:08:30.551Z,17.98
2018-07-02T14:10:59.696Z,17.42
2018-07-02T14:13:28.841Z,17.51
2018-07-02T14:15:57.985Z,16.78
2018-07-02T14:18:27.133Z,18.09
2018-07-02T14:20:56.266Z,17.60
2018-07-02T14:23:25.419Z,18.36
2018-07-02T14:25:54.543Z,17.32
2018-07-02T14:28:23.699Z,16.01
2018-07-02T14:30:52.840Z,16.92
2018-07-02T14:33:21.987Z,16.72
2018-07-02T14:35:51.125Z,17.76
2018-07-02T14:38:20.269Z,16.21
2018-07-02T14:40:49.406Z,16.64
2018-07-02T14:43:18.561Z,15.40
2018-07-02T14:45:47.697Z,16.46
2018-07-02T14:48:16.849Z,16.93
2018-07-02T14:50:45.981Z,14.95
2018-07-02T14:53:15.114Z,16.82
2018-07-02T14:55:44.257Z,16.51
2018-07-02T14:58:13.388Z,16.62
2018-07-02T15:00:42.527Z,16.73
2018-07-02T15:03:11.664Z,15.68
2018-07-02T15:05:40.833Z,17.11
2018-07-02T15:08:09.976Z,17.68
2018-07-02T15:10:39.113Z,16.85
2018-07-02T15:13:08.251Z,16.91
2018-07-02T15:15:37.412Z,15.18
2018-07-02T15:18:06.620Z,15.64
2018-07-02T15:20:35.724Z,15.10
2018-07-02T15:23:04.907Z,15.55
2018-07-02T15:25:34.008Z,17.54
2018-07-02T15:28:03.143Z,16.54
2018-07-02T15:30:32.286Z,17.07
2018-07-02T15:33:01.416Z,16.36
2018-07-02T15:35:30.570Z,16.98
2018-07-02T15:37:59.721Z,16.66
2018-07-02T15:40:29.088Z,15.41
2018-07-02T15:42:58.223Z,15.71
2018-07-02T15:45:27.370Z,15.59
2018-07-02T15:47:56.512Z,15.15
2018-07-02T15:50:25.650Z,15.12
2018-07-02T15:52:55.423Z,15.58
2018-07-02T15:55:24.772Z,16.33
2018-07-02T15:57:53.710Z,15.32
2018-07-02T16:00:22.840Z,15.41
2018-07-02T16:02:51.980Z,15.88
2018-07-02T16:05:21.124Z,16.70
2018-07-02T16:07:50.267Z,16.50
2018-07-02T16:10:19.417Z,16.88
2018-07-02T16:12:48.559Z,16.22
2018-07-02T16:15:17.705Z,14.42
2018-07-02T16:17:46.864Z,15.32
2018-07-02T16:20:16.016Z,15.21
2018-07-02T16:22:45.194Z,15.22
2018-07-02T16:25:14.343Z,14.01
2018-07-02T16:27:43.489Z,15.24
2018-07-02T16:30:12.641Z,15.42
2018-07-02T16:32:41.783Z,16.43
2018-07-02T16:35:10.936Z,15.70
2018-07-02T16:37:40.068Z,16.31
2018-07-02T16:40:09.217Z,16.12
2018-07-02T16:42:38.374Z,16.42
2018-07-02T16:45:07.520Z,16.30
2018-07-02T16:47:36.671Z,16.00
2018-07-02T16:50:06.404Z,16.11
2018-07-02T16:52:35.684Z,16.56
2018-07-02T16:55:04.827Z,16.00
2018-07-02T16:57:33.980Z,15.20
2018-07-02T17:00:03.118Z,15.91
2018-07-02T17:02:32.282Z,15.75
2018-07-02T17:05:01.444Z,15.49
2018-07-02T17:07:30.679Z,16.72
2018-07-02T17:09:59.824Z,16.25
2018-07-02T17:12:28.987Z,16.43
2018-07-02T17:14:58.146Z,18.46
2018-07-02T17:17:27.309Z,17.93
2018-07-02T17:19:56.452Z,16.61
2018-07-02T17:22:25.650Z,16.96
2018-07-02T17:24:54.757Z,15.76
2018-07-02T17:27:23.902Z,16.78
2018-07-02T17:29:53.044Z,16.18
2018-07-02T17:32:22.197Z,16.04
2018-07-02T17:34:51.332Z,16.58
2018-07-02T17:37:20.546Z,17.02
2018-07-02T17:39:49.713Z,17.04
2018-07-02T17:42:18.854Z,17.71
2018-07-02T17:44:47.992Z,17.04
2018-07-02T17:47:17.154Z,18.45
2018-07-02T17:49:46.308Z,15.80
2018-07-02T17:52:15.460Z,17.06
2018-07-02T17:54:44.608Z,16.67
2018-07-02T17:57:13.792Z,17.84
2018-07-02T17:59:42.971Z,17.76
2018-07-02T18:02:12.109Z,17.20
2018-07-02T18:04:41.264Z,17.25
2018-07-02T18:07:10.419Z,19.13
2018-07-02T18:09:39.538Z,20.11
2018-07-02T18:12:08.674Z,19.45
2018-07-02T18:14:37.799Z,20.02
2018-07-02T18:17:07.023Z,22.17
2018-07-02T18:19:36.137Z,24.44
2018-07-02T18:22:05.407Z,25.38
2018-07-02T18:24:34.535Z,25.95
2018-07-02T18:27:03.672Z,25.89
2018-07-02T18:29:32.798Z,25.70
2018-07-02T18:32:01.924Z,26.19
2018-07-02T18:34:31.049Z,26.74
2018-07-02T18:37:00.157Z,27.87
2018-07-02T18:39:29.275Z,27.38
2018-07-02T18:41:58.409Z,27.47
2018-07-02T18:44:27.535Z,28.71
2018-07-02T18:46:56.674Z,29.04
2018-07-02T18:49:25.835Z,29.25
2018-07-02T18:51:54.986Z,29.09
2018-07-02T18:54:24.086Z,29.57
2018-07-02T18:56:53.206Z,29.14
2018-07-02T18:59:22.353Z,30.27
2018-07-02T19:01:51.522Z,29.48
2018-07-02T19:04:20.674Z,30.47
2018-07-02T19:06:49.841Z,30.21
2018-07-02T19:09:18.967Z,30.97
2018-07-02T19:11:48.102Z,30.39
2018-07-02T19:14:17.240Z,30.67
2018-07-02T19:16:46.439Z,30.77
2018-07-02T19:19:15.532Z,31.32
2018-07-02T19:21:44.651Z,30.39
2018-07-02T19:24:13.776Z,30.75
2018-07-02T19:26:42.902Z,31.54
2018-07-02T19:29:14.052Z,31.40
2018-07-02T19:31:43.231Z,30.86
2018-07-02T19:34:12.351Z,32.80
2018-07-02T19:36:41.475Z,31.09
2018-07-02T19:39:12.609Z,31.90
2018-07-02T19:41:41.731Z,32.35
2018-07-02T19:44:11.431Z,32.53
2018-07-02T19:46:40.679Z,31.55
2018-07-02T19:49:09.810Z,31.72
2018-07-02T19:51:38.965Z,32.77
2018-07-02T19:54:08.110Z,32.01
2018-07-02T19:56:37.309Z,32.89
2018-07-02T19:59:06.351Z,32.65
2018-07-02T20:01:35.483Z,33.54
2018-07-02T20:04:04.716Z,33.75
2018-07-02T20:06:33.876Z,33.94
2018-07-02T20:09:03.025Z,33.50
2018-07-02T20:11:32.167Z,34.48
2018-07-02T20:14:01.331Z,34.75
2018-07-02T20:16:30.483Z,34.26
2018-07-02T20:18:59.768Z,34.41
2018-07-02T20:21:28.865Z,34.40
2018-07-02T20:23:58.078Z,34.63
2018-07-02T20:26:27.258Z,34.27
2018-07-02T20:28:56.468Z,34.43
2018-07-02T20:31:25.631Z,34.91
2018-07-02T20:33:54.805Z,35.08
2018-07-02T20:36:24.048Z,35.52
2018-07-02T20:38:53.232Z,35.88
2018-07-02T20:41:22.423Z,35.54
2018-07-02T20:43:51.624Z,35.56
2018-07-02T20:46:20.766Z,36.53
2018-07-02T20:48:49.922Z,37.38
2018-07-02T20:51:19.063Z,37.72
2018-07-02T20:53:48.265Z,37.33
2018-07-02T20:56:17.460Z,38.19
2018-07-02T20:58:46.608Z,37.96
2018-07-02T21:01:15.868Z,38.54
2018-07-02T21:03:45.023Z,37.83
2018-07-02T21:06:14.188Z,37.81
2018-07-02T21:08:43.351Z,37.77
2018-07-02T21:11:12.495Z,37.65
2018-07-02T21:13:41.647Z,37.52
2018-07-02T21:16:10.829Z,37.74
2018-07-02T21:18:40.016Z,38.12
2018-07-02T21:21:09.182Z,38.41
2018-07-02T21:23:38.471Z,37.71
2018-07-02T21:26:07.612Z,37.51
2018-07-02T21:28:36.773Z,37.86
2018-07-02T21:31:05.919Z,38.46
2018-07-02T21:33:35.094Z,38.19
2018-07-02T21:36:05.021Z,38.11
2018-07-02T21:38:34.159Z,37.92
2018-07-02T21:41:03.486Z,37.55
2018-07-02T21:43:32.699Z,37.14
2018-07-02T21:46:01.883Z,37.48
2018-07-02T21:48:31.196Z,37.22
2018-07-02T21:51:00.344Z,37.98
2018-07-02T21:53:29.492Z,37.81
2018-07-02T21:55:58.646Z,36.92
2018-07-02T21:58:27.794Z,37.38
2018-07-02T22:00:57.014Z,38.48
2018-07-02T22:03:26.214Z,38.04
2018-07-02T22:05:55.509Z,36.96
2018-07-02T22:08:24.701Z,37.59
2018-07-02T22:10:53.863Z,37.67
2018-07-02T22:13:23.010Z,38.24
2018-07-02T22:15:52.247Z,38.10
2018-07-02T22:18:21.388Z,38.89
2018-07-02T22:20:50.557Z,38.22
2018-07-02T22:23:19.703Z,38.57
2018-07-02T22:25:48.865Z,38.08
2018-07-02T22:28:18.007Z,37.15
2018-07-02T22:30:47.147Z,38.03
2018-07-02T22:33:16.294Z,38.29
2018-07-02T22:35:45.448Z,38.77
2018-07-02T22:38:14.599Z,38.83
2018-07-02T22:40:43.753Z,38.89
2018-07-02T22:43:12.899Z,38.61
2018-07-02T22:45:42.038Z,38.65
2018-07-02T22:48:11.182Z,38.90
2018-07-02T22:50:40.322Z,39.98
2018-07-02T22:53:09.482Z,40.19
2018-07-02T22:55:55.568Z,40.19
2018-07-02T22:58:24.748Z,40.22
2018-07-02T23:00:53.885Z,40.21
2018-07-02T23:03:23.054Z,39.57
2018-07-02T23:05:52.247Z,40.02
2018-07-02T23:08:21.409Z,39.72
2018-07-02T23:10:50.577Z,39.77
2018-07-02T23:13:19.718Z,39.46
2018-07-02T23:15:48.899Z,39.58
2018-07-02T23:18:18.051Z,39.32
2018-07-02T23:20:47.190Z,39.68
2018-07-02T23:23:16.364Z,40.67
2018-07-02T23:25:45.506Z,40.81
2018-07-02T23:28:14.643Z,40.24
2018-07-02T23:30:43.795Z,41.29
2018-07-02T23:33:12.964Z,41.21
2018-07-02T23:35:42.116Z,41.35
2018-07-02T23:38:11.298Z,42.19
2018-07-02T23:40:40.430Z,42.08
2018-07-02T23:43:09.576Z,42.37
2018-07-02T23:45:38.750Z,42.60
2018-07-02T23:48:07.916Z,42.20
2018-07-02T23:50:37.051Z,41.41
2018-07-02T23:53:06.216Z,42.23
2018-07-02T23:55:35.372Z,42.64
2018-07-02T23:58:04.687Z,43.00
